createdAt,value
2022-08-05T00:00:23.644Z,89.38
2022-08-05T00:02:07.603Z,88.78
2022-08-05T00:03:39.870Z,88.78
2022-08-05T00:06:02.632Z,88.81
2022-08-05T00:07:27.193Z,88.58
2022-08-05T00:08:58.231Z,89.80
2022-08-05T00:10:30.116Z,89.03
2022-08-05T00:12:01.978Z,88.44
2022-08-05T00:13:39.153Z,88.50
2022-08-05T00:15:54.495Z,88.58
2022-08-05T00:17:03.535Z,89.25
2022-08-05T00:18:38.698Z,88.33
2022-08-05T00:20:10.826Z,87.60
2022-08-05T00:21:43.155Z,88.35
2022-08-05T00:23:15.211Z,88.29
2022-08-05T00:24:47.651Z,88.56
2022-08-05T00:26:27.464Z,88.56
2022-08-05T00:27:59.996Z,88.55
2022-08-05T00:29:37.867Z,87.85
2022-08-05T00:31:10.924Z,88.66
2022-08-05T00:32:42.702Z,88.17
2022-08-05T00:34:54.617Z,89.28
2022-08-05T00:36:16.565Z,88.29
2022-08-05T00:37:58.839Z,89.04
2022-08-05T00:39:37.100Z,88.47
2022-08-05T00:41:27.596Z,88.47
2022-08-05T00:43:19.801Z,89.01
2022-08-05T00:44:51.682Z,89.45
2022-08-05T00:46:36.861Z,89.13
2022-08-05T00:48:18.172Z,88.10
2022-08-05T00:49:59.521Z,89.04
2022-08-05T00:51:50.292Z,89.58
2022-08-05T00:54:01.110Z,88.66
2022-08-05T00:55:15.979Z,89.68
2022-08-05T00:56:51.401Z,89.62
2022-08-05T00:58:27.388Z,89.49
2022-08-05T00:59:59.540Z,89.33
2022-08-05T01:01:42.574Z,89.54
2022-08-05T01:03:22.594Z,89.22
2022-08-05T01:04:55.223Z,89.91
2022-08-05T01:06:32.527Z,89.46
2022-08-05T01:08:41.410Z,89.50
2022-08-05T01:09:57.150Z,88.61
2022-08-05T01:11:37.239Z,88.83
2022-08-05T01:13:19.507Z,89.15
2022-08-05T01:15:07.073Z,90.00
2022-08-05T01:17:39.990Z,89.27
2022-08-05T01:19:36.684Z,90.06
2022-08-05T01:21:40.738Z,90.40
2022-08-05T01:23:34.699Z,89.89
2022-08-05T01:25:15.963Z,89.21
2022-08-05T01:27:17.966Z,89.92
2022-08-05T01:29:13.101Z,89.72
2022-08-05T01:30:55.531Z,89.40
2022-08-05T01:32:28.401Z,89.50
2022-08-05T01:34:03.706Z,89.67
2022-08-05T01:35:51.919Z,89.76
2022-08-05T01:37:37.680Z,89.88
2022-08-05T01:39:45.589Z,88.80
2022-08-05T01:41:09.496Z,89.28
2022-08-05T01:42:45.394Z,89.54
2022-08-05T01:44:19.863Z,88.50
2022-08-05T01:45:56.612Z,89.06
2022-08-05T01:47:38.868Z,89.02
2022-08-05T01:49:24.101Z,87.97
2022-08-05T01:51:12.502Z,89.03
2022-08-05T01:52:50.059Z,89.22
2022-08-05T01:54:24.633Z,89.53
2022-08-05T01:56:04.542Z,88.67
2022-08-05T01:58:13.647Z,88.92
2022-08-05T01:59:34.044Z,89.90
2022-08-05T02:01:06.829Z,89.80
2022-08-05T02:02:51.088Z,90.92
2022-08-05T02:04:28.860Z,93.38
2022-08-05T02:06:33.687Z,93.77
2022-08-05T02:08:13.857Z,96.10
2022-08-05T02:09:57.755Z,96.58
2022-08-05T02:11:52.562Z,97.79
2022-08-05T02:13:36.499Z,97.22
2022-08-05T02:15:33.556Z,98.58
2022-08-05T02:17:17.011Z,99.69
2022-08-05T02:19:21.127Z,100.00
2022-08-05T02:20:58.965Z,100.00
2022-08-05T02:22:33.765Z,100.00
2022-08-05T02:24:08.803Z,100.00
2022-08-05T02:25:50.182Z,100.00
2022-08-05T02:27:29.837Z,100.00
2022-08-05T02:29:26.151Z,100.00
2022-08-05T02:31:23.882Z,100.00
2022-08-05T02:32:56.291Z,100.00
2022-08-05T02:34:32.248Z,100.00
2022-08-05T02:36:05.610Z,100.00
2022-08-05T02:37:43.075Z,100.00
2022-08-05T02:39:21.691Z,100.00
2022-08-05T02:40:54.532Z,100.00
2022-08-05T02:42:31.952Z,100.00
2022-08-05T02:44:12.110Z,100.00
2022-08-05T02:45:52.109Z,100.00
2022-08-05T02:47:25.944Z,100.00
2022-08-05T02:49:18.341Z,100.00
2022-08-05T02:50:55.387Z,100.00
2022-08-05T02:52:30.482Z,100.00
2022-08-05T02:54:03.465Z,100.00
2022-08-05T02:55:54.540Z,100.00
2022-08-05T02:58:12.160Z,100.00
2022-08-05T02:59:20.477Z,100.00
2022-08-05T03:01:02.880Z,100.00
2022-08-05T03:02:40.061Z,100.00
2022-08-05T03:04:14.546Z,100.00
2022-08-05T03:06:53.819Z,100.00
2022-08-05T03:08:07.185Z,100.00
2022-08-05T03:09:38.231Z,100.00
2022-08-05T03:11:54.998Z,100.00
2022-08-05T03:13:16.910Z,100.00
2022-08-05T03:14:48.867Z,100.00
2022-08-05T03:16:21.742Z,100.00
2022-08-05T03:17:57.585Z,100.00
2022-08-05T03:19:34.231Z,100.00
2022-08-05T03:21:08.235Z,100.00
2022-08-05T03:22:46.887Z,100.00
2022-08-05T03:24:29.522Z,100.00
2022-08-05T03:26:30.368Z,100.00
2022-08-05T03:27:59.804Z,100.00
2022-08-05T03:29:44.471Z,100.00
2022-08-05T03:31:41.493Z,100.00
2022-08-05T03:33:10.001Z,100.00
2022-08-05T03:34:50.366Z,100.00
2022-08-05T03:36:30.221Z,100.00
2022-08-05T03:38:10.126Z,100.00
2022-08-05T03:40:01.421Z,100.00
2022-08-05T03:41:45.166Z,100.00
2022-08-05T03:44:09.236Z,100.00
2022-08-05T03:45:22.196Z,100.00
2022-08-05T03:46:55.716Z,100.00
2022-08-05T03:48:29.324Z,100.00
2022-08-05T03:50:01.297Z,100.00
2022-08-05T03:52:36.872Z,100.00
2022-08-05T03:55:54.145Z,100.00
2022-08-05T03:56:30.653Z,100.00
2022-08-05T03:58:10.885Z,100.00
2022-08-05T03:59:46.967Z,100.00
2022-08-05T04:01:32.328Z,100.00
2022-08-05T04:03:05.922Z,100.00
2022-08-05T04:04:38.285Z,100.00
2022-08-05T04:06:10.931Z,100.00
2022-08-05T04:07:58.343Z,100.00
2022-08-05T04:09:31.113Z,100.00
2022-08-05T04:11:09.988Z,100.00
2022-08-05T04:12:45.070Z,100.00
2022-08-05T04:14:18.172Z,100.00
2022-08-05T04:16:02.830Z,100.00
2022-08-05T04:17:55.898Z,100.00
2022-08-05T04:19:28.958Z,100.00
2022-08-05T04:21:01.081Z,100.00
2022-08-05T04:22:32.966Z,100.00
2022-08-05T04:24:08.911Z,100.00
2022-08-05T04:26:00.589Z,100.00
2022-08-05T04:27:42.206Z,100.00
2022-08-05T04:29:27.359Z,100.00
2022-08-05T04:31:01.047Z,100.00
2022-08-05T04:32:33.557Z,100.00
2022-08-05T04:34:33.117Z,100.00
2022-08-05T04:36:11.095Z,100.00
2022-08-05T04:38:01.969Z,100.00
2022-08-05T04:39:38.145Z,100.00
2022-08-05T04:41:11.219Z,100.00
2022-08-05T04:42:43.147Z,100.00
2022-08-05T04:44:21.525Z,100.00
2022-08-05T04:46:01.831Z,100.00
2022-08-05T04:47:42.736Z,100.00
2022-08-05T04:49:18.990Z,100.00
2022-08-05T04:51:01.711Z,100.00
2022-08-05T04:52:35.707Z,100.00
2022-08-05T04:54:07.500Z,100.00
2022-08-05T04:56:14.783Z,100.00
2022-08-05T04:57:37.286Z,99.99
2022-08-05T04:59:21.466Z,99.79
2022-08-05T05:00:55.793Z,99.70
2022-08-05T05:02:37.084Z,99.15
2022-08-05T05:04:13.027Z,99.67
2022-08-05T05:06:35.842Z,98.63
2022-08-05T05:07:37.052Z,99.76
2022-08-05T05:09:18.382Z,99.59
2022-08-05T05:10:56.114Z,99.80
2022-08-05T05:12:28.264Z,99.30
2022-08-05T05:14:00.141Z,98.31
2022-08-05T05:15:57.003Z,97.66
2022-08-05T05:17:55.531Z,97.77
2022-08-05T05:19:18.986Z,97.06
2022-08-05T05:20:51.465Z,97.13
2022-08-05T05:22:26.333Z,96.65
2022-08-05T05:24:02.889Z,96.88
2022-08-05T05:25:41.909Z,96.54
2022-08-05T05:27:16.021Z,96.23
2022-08-05T05:28:49.244Z,95.69
2022-08-05T05:30:29.334Z,96.26
2022-08-05T05:32:03.690Z,95.53
2022-08-05T05:33:58.597Z,94.99
2022-08-05T05:35:34.302Z,95.56
2022-08-05T05:37:10.014Z,95.20
2022-08-05T05:38:42.254Z,94.74
2022-08-05T05:40:17.121Z,95.04
2022-08-05T05:41:54.352Z,94.94
2022-08-05T05:43:57.174Z,94.83
2022-08-05T05:45:19.696Z,95.58
2022-08-05T05:46:52.026Z,95.43
2022-08-05T05:48:27.329Z,95.44
2022-08-05T05:50:01.714Z,95.36
2022-08-05T05:51:50.446Z,95.79
2022-08-05T05:53:22.982Z,95.69
2022-08-05T05:54:55.692Z,95.96
2022-08-05T05:56:32.764Z,96.21
2022-08-05T05:58:05.965Z,96.36
2022-08-05T05:59:40.370Z,95.75
2022-08-05T06:01:15.179Z,96.25
2022-08-05T06:02:49.639Z,96.23
2022-08-05T06:04:23.693Z,96.52
2022-08-05T06:05:55.762Z,96.78
2022-08-05T06:07:41.937Z,96.57
2022-08-05T06:09:17.452Z,97.05
2022-08-05T06:10:57.442Z,98.90
2022-08-05T06:12:29.311Z,100.00
2022-08-05T06:14:02.494Z,100.00
2022-08-05T06:16:31.610Z,99.30
2022-08-05T06:17:31.030Z,100.00
2022-08-05T06:19:05.743Z,100.00
2022-08-05T06:20:39.400Z,100.00
2022-08-05T06:22:19.131Z,100.00
2022-08-05T06:23:50.998Z,100.00
2022-08-05T06:25:25.305Z,100.00
2022-08-05T06:28:08.724Z,100.00
2022-08-05T06:29:42.965Z,100.00
2022-08-05T06:30:58.472Z,100.00
2022-08-05T06:32:30.451Z,100.00
2022-08-05T06:34:07.839Z,100.00
2022-08-05T06:36:03.497Z,100.00
2022-08-05T06:37:56.251Z,100.00
2022-08-05T06:39:26.775Z,100.00
2022-08-05T06:40:59.560Z,100.00
2022-08-05T06:42:31.641Z,100.00
2022-08-05T06:44:03.641Z,100.00
2022-08-05T06:45:44.634Z,100.00
2022-08-05T06:48:11.758Z,100.00
2022-08-05T06:49:59.830Z,100.00
2022-08-05T06:51:21.826Z,100.00
2022-08-05T06:53:03.717Z,100.00
2022-08-05T06:54:43.205Z,100.00
2022-08-05T06:56:26.535Z,100.00
2022-08-05T06:58:19.815Z,100.00
2022-08-05T06:59:57.913Z,100.00
2022-08-05T07:01:32.776Z,100.00
2022-08-05T07:03:04.829Z,100.00
2022-08-05T07:04:41.566Z,100.00
2022-08-05T07:06:15.303Z,100.00
2022-08-05T07:07:49.091Z,100.00
2022-08-05T07:09:21.042Z,100.00
2022-08-05T07:10:57.092Z,100.00
2022-08-05T07:12:49.069Z,100.00
2022-08-05T07:14:39.823Z,100.00
2022-08-05T07:17:59.044Z,100.00
2022-08-05T07:18:27.283Z,99.82
2022-08-05T07:20:32.310Z,100.00
2022-08-05T07:22:00.000Z,99.89
2022-08-05T07:23:32.772Z,100.00
2022-08-05T07:25:23.752Z,100.00
2022-08-05T07:26:57.410Z,99.37
2022-08-05T07:28:29.385Z,99.04
2022-08-05T07:30:27.919Z,98.94
2022-08-05T07:31:56.407Z,100.00
2022-08-05T07:33:37.168Z,100.00
2022-08-05T07:36:03.458Z,100.00
2022-08-05T07:37:02.213Z,99.83
2022-08-05T07:38:43.684Z,99.38
2022-08-05T07:40:32.048Z,98.64
2022-08-05T07:42:13.039Z,98.80
2022-08-05T07:43:46.894Z,98.50
2022-08-05T07:45:19.220Z,98.39
2022-08-05T07:47:11.111Z,98.03
2022-08-05T07:49:02.529Z,97.42
2022-08-05T07:50:36.772Z,97.25
2022-08-05T07:52:11.608Z,97.25
2022-08-05T07:53:50.632Z,96.86
2022-08-05T07:56:04.780Z,96.32
2022-08-05T07:57:41.524Z,96.22
2022-08-05T07:59:08.603Z,96.30
2022-08-05T08:00:40.720Z,96.72
2022-08-05T08:02:16.533Z,96.74
2022-08-05T08:03:49.093Z,95.42
2022-08-05T08:05:26.821Z,95.83
2022-08-05T08:07:01.030Z,95.27
2022-08-05T08:08:37.460Z,95.73
2022-08-05T08:10:10.461Z,96.10
2022-08-05T08:11:47.440Z,95.75
2022-08-05T08:13:22.169Z,94.83
2022-08-05T08:15:03.571Z,94.31
2022-08-05T08:16:51.080Z,94.05
2022-08-05T08:18:25.195Z,94.45
2022-08-05T08:20:21.143Z,94.00
2022-08-05T08:21:49.074Z,93.71
2022-08-05T08:24:02.264Z,93.12
2022-08-05T08:25:15.707Z,91.88
2022-08-05T08:26:50.924Z,90.86
2022-08-05T08:28:36.205Z,91.38
2022-08-05T08:30:30.027Z,91.45
2022-08-05T08:32:04.064Z,91.19
2022-08-05T08:33:38.266Z,91.54
2022-08-05T08:35:13.506Z,89.67
2022-08-05T08:36:49.047Z,89.57
2022-08-05T08:38:35.362Z,88.76
2022-08-05T08:40:08.547Z,89.05
2022-08-05T08:41:50.873Z,88.09
2022-08-05T08:45:20.945Z,86.78
2022-08-05T08:45:27.150Z,87.02
2022-08-05T08:47:03.319Z,87.70
2022-08-05T08:49:07.511Z,86.19
2022-08-05T08:51:03.563Z,85.21
2022-08-05T08:52:39.837Z,84.88
2022-08-05T08:54:13.796Z,84.19
2022-08-05T08:56:02.948Z,84.17
2022-08-05T08:57:42.300Z,83.34
2022-08-05T08:59:33.396Z,82.19
2022-08-05T09:01:07.489Z,83.19
2022-08-05T09:02:45.045Z,82.21
2022-08-05T09:04:19.890Z,82.63
2022-08-05T09:06:07.590Z,82.63
2022-08-05T09:07:57.070Z,82.45
2022-08-05T09:09:34.830Z,81.79
2022-08-05T09:11:08.593Z,81.61
2022-08-05T09:12:44.605Z,81.95
2022-08-05T09:14:58.881Z,81.04
2022-08-05T09:16:17.157Z,81.71
2022-08-05T09:17:50.070Z,82.77
2022-08-05T09:19:27.888Z,81.92
2022-08-05T09:21:11.508Z,82.83
2022-08-05T09:23:05.578Z,82.88
2022-08-05T09:24:40.072Z,82.80
2022-08-05T09:26:20.780Z,82.63
2022-08-05T09:28:04.857Z,83.23
2022-08-05T09:29:48.035Z,82.83
2022-08-05T09:31:43.562Z,82.77
2022-08-05T09:33:15.278Z,81.54
2022-08-05T09:34:53.813Z,82.20
2022-08-05T09:36:38.885Z,79.53
2022-08-05T09:38:27.525Z,80.66
2022-08-05T09:40:01.511Z,79.80
2022-08-05T09:41:38.294Z,79.35
2022-08-05T09:43:41.920Z,77.55
2022-08-05T09:45:17.791Z,78.48
2022-08-05T09:47:20.638Z,75.83
2022-08-05T09:49:06.617Z,77.20
2022-08-05T09:50:44.579Z,78.38
2022-08-05T09:52:27.656Z,77.00
2022-08-05T09:54:00.543Z,74.48
2022-08-05T09:55:56.860Z,76.29
2022-08-05T09:57:35.401Z,77.59
2022-08-05T09:59:17.060Z,76.67
2022-08-05T10:01:00.601Z,77.07
2022-08-05T10:02:38.666Z,76.84
2022-08-05T10:04:13.833Z,76.17
2022-08-05T10:06:07.536Z,75.12
2022-08-05T10:08:35.081Z,75.33
2022-08-05T10:10:14.062Z,75.50
2022-08-05T10:11:48.229Z,74.80
2022-08-05T10:13:45.779Z,75.74
2022-08-05T10:15:27.789Z,77.23
2022-08-05T10:17:37.641Z,76.72
2022-08-05T10:19:09.180Z,77.03
2022-08-05T10:20:44.059Z,77.32
2022-08-05T10:22:30.040Z,77.95
2022-08-05T10:24:07.549Z,76.85
2022-08-05T10:25:43.047Z,78.34
2022-08-05T10:27:16.761Z,78.15
2022-08-05T10:28:48.853Z,79.13
2022-08-05T10:31:20.240Z,80.04
2022-08-05T10:32:53.220Z,81.07
2022-08-05T10:34:10.398Z,80.34
2022-08-05T10:35:44.234Z,79.86
2022-08-05T10:37:16.799Z,79.77
2022-08-05T10:38:50.180Z,80.14
2022-08-05T10:40:46.222Z,80.95
2022-08-05T10:42:34.269Z,80.73
2022-08-05T10:44:13.255Z,81.06
2022-08-05T10:46:06.699Z,81.84
2022-08-05T10:47:46.999Z,78.91
2022-08-05T10:49:48.837Z,78.79
2022-08-05T10:51:28.336Z,73.84
2022-08-05T10:53:01.206Z,73.56
2022-08-05T10:55:03.231Z,72.62
2022-08-05T10:56:49.479Z,72.79
2022-08-05T10:58:47.895Z,71.84
2022-08-05T11:00:27.470Z,68.23
2022-08-05T11:02:14.803Z,66.50
2022-08-05T11:04:17.903Z,61.97
2022-08-05T11:06:16.252Z,65.03
2022-08-05T11:08:04.675Z,65.88
2022-08-05T11:09:49.942Z,66.26
2022-08-05T11:11:44.831Z,61.61
2022-08-05T11:13:57.991Z,64.56
2022-08-05T11:16:01.391Z,62.04
2022-08-05T11:18:07.685Z,56.79
2022-08-05T11:20:11.215Z,56.10
2022-08-05T11:21:48.831Z,60.23
2022-08-05T11:24:02.644Z,59.31
2022-08-05T11:26:04.382Z,60.94
2022-08-05T11:27:37.050Z,61.15
2022-08-05T11:29:35.415Z,63.00
2022-08-05T11:31:09.111Z,61.99
2022-08-05T11:32:41.758Z,62.52
2022-08-05T11:34:37.012Z,63.41
2022-08-05T11:36:10.416Z,61.52
2022-08-05T11:38:29.409Z,62.90
2022-08-05T11:40:00.448Z,62.95
2022-08-05T11:42:01.507Z,63.51
2022-08-05T11:44:00.989Z,63.64
2022-08-05T11:46:15.551Z,64.43
2022-08-05T11:47:18.648Z,65.19
2022-08-05T11:48:55.028Z,64.93
2022-08-05T11:50:27.760Z,64.48
2022-08-05T11:51:59.787Z,64.39
2022-08-05T11:53:33.674Z,64.08
2022-08-05T11:55:13.358Z,64.42
2022-08-05T11:56:52.948Z,63.02
2022-08-05T11:58:52.948Z,62.81
2022-08-05T12:00:30.246Z,62.85
2022-08-05T12:02:06.844Z,62.36
2022-08-05T12:03:57.382Z,62.23
2022-08-05T12:05:36.403Z,63.52
2022-08-05T12:07:14.102Z,62.66
2022-08-05T12:08:53.404Z,62.36
2022-08-05T12:10:43.018Z,61.69
2022-08-05T12:12:23.008Z,61.56
2022-08-05T12:14:04.270Z,59.25
2022-08-05T12:15:38.246Z,61.51
2022-08-05T12:18:03.003Z,59.57
2022-08-05T12:19:08.771Z,59.29
2022-08-05T12:20:41.718Z,57.45
2022-08-05T12:22:19.993Z,56.76
2022-08-05T12:24:04.757Z,56.28
2022-08-05T12:25:56.506Z,56.47
2022-08-05T12:27:33.237Z,56.60
2022-08-05T12:29:09.641Z,56.73
2022-08-05T12:30:49.936Z,56.05
2022-08-05T12:32:21.887Z,56.30
2022-08-05T12:33:57.494Z,54.87
2022-08-05T12:35:38.574Z,54.42
2022-08-05T12:37:26.679Z,55.97
2022-08-05T12:39:05.453Z,56.43
2022-08-05T12:40:37.504Z,55.94
2022-08-05T12:42:22.001Z,55.05
2022-08-05T12:44:02.128Z,54.26
2022-08-05T12:45:42.594Z,53.78
2022-08-05T12:47:28.588Z,53.73
2022-08-05T12:49:13.772Z,51.74
2022-08-05T12:52:09.897Z,52.96
2022-08-05T12:53:16.660Z,54.11
2022-08-05T12:54:52.112Z,53.26
2022-08-05T12:56:35.411Z,53.34
2022-08-05T12:58:48.268Z,52.92
2022-08-05T13:01:57.535Z,52.05
2022-08-05T13:02:07.487Z,50.02
2022-08-05T13:03:42.049Z,50.96
2022-08-05T13:05:15.418Z,49.56
2022-08-05T13:06:51.891Z,48.72
2022-08-05T13:08:23.972Z,48.36
2022-08-05T13:09:59.113Z,48.90
2022-08-05T13:12:01.829Z,46.79
2022-08-05T13:14:05.668Z,47.94
2022-08-05T13:15:24.190Z,47.04
2022-08-05T13:16:57.886Z,47.70
2022-08-05T13:18:39.743Z,46.46
2022-08-05T13:20:20.350Z,47.96
2022-08-05T13:21:56.722Z,46.02
2022-08-05T13:23:28.742Z,44.92
2022-08-05T13:25:18.788Z,46.74
2022-08-05T13:26:56.157Z,47.42
2022-08-05T13:28:32.380Z,47.46
2022-08-05T13:30:35.882Z,46.89
2022-08-05T13:32:03.912Z,46.46
2022-08-05T13:34:21.749Z,46.77
2022-08-05T13:35:43.365Z,47.13
2022-08-05T13:37:27.221Z,45.42
2022-08-05T13:39:08.388Z,45.72
2022-08-05T13:40:56.787Z,46.29
2022-08-05T13:42:28.630Z,46.02
2022-08-05T13:44:00.617Z,46.04
2022-08-05T13:45:43.022Z,44.56
2022-08-05T13:47:34.687Z,45.39
2022-08-05T13:49:11.879Z,43.52
2022-08-05T13:50:44.022Z,42.41
2022-08-05T13:52:18.470Z,42.87
2022-08-05T13:53:50.268Z,43.63
2022-08-05T13:55:40.778Z,43.90
2022-08-05T13:57:14.977Z,41.13
2022-08-05T13:58:53.044Z,43.01
2022-08-05T14:00:26.985Z,41.46
2022-08-05T14:02:00.802Z,42.22
2022-08-05T14:03:32.912Z,42.49
2022-08-05T14:05:11.438Z,43.14
2022-08-05T14:06:47.554Z,40.38
2022-08-05T14:08:27.663Z,41.62
2022-08-05T14:10:08.776Z,42.05
2022-08-05T14:12:00.391Z,40.67
2022-08-05T14:13:33.537Z,42.70
2022-08-05T14:16:04.769Z,43.37
2022-08-05T14:16:59.073Z,43.04
2022-08-05T14:18:32.674Z,41.71
2022-08-05T14:20:07.795Z,41.18
2022-08-05T14:22:09.901Z,42.03
2022-08-05T14:23:36.686Z,42.54
2022-08-05T14:25:19.121Z,42.07
2022-08-05T14:27:15.683Z,42.95
2022-08-05T14:28:52.328Z,41.61
2022-08-05T14:30:27.874Z,43.84
2022-08-05T14:32:13.162Z,42.11
2022-08-05T14:33:59.174Z,41.68
2022-08-05T14:35:36.916Z,42.82
2022-08-05T14:37:21.678Z,41.61
2022-08-05T14:38:57.913Z,40.52
2022-08-05T14:40:29.834Z,40.64
2022-08-05T14:42:19.485Z,40.72
2022-08-05T14:44:01.696Z,40.67
2022-08-05T14:45:41.797Z,39.31
2022-08-05T14:47:13.977Z,39.25
2022-08-05T14:48:49.824Z,40.04
2022-08-05T14:50:21.965Z,40.42
2022-08-05T14:51:57.133Z,40.15
2022-08-05T14:53:30.234Z,39.46
2022-08-05T14:55:02.129Z,39.44
2022-08-05T14:56:34.779Z,38.38
2022-08-05T14:58:11.226Z,40.03
2022-08-05T14:59:44.378Z,39.43
2022-08-05T15:01:47.105Z,39.99
2022-08-05T15:03:12.581Z,40.38
2022-08-05T15:04:47.743Z,39.94
2022-08-05T15:06:20.325Z,39.75
2022-08-05T15:08:17.909Z,38.95
2022-08-05T15:10:05.462Z,40.58
2022-08-05T15:11:50.894Z,38.96
2022-08-05T15:13:28.651Z,39.03
2022-08-05T15:15:54.268Z,39.16
2022-08-05T15:17:44.660Z,39.72
2022-08-05T15:19:03.763Z,37.87
2022-08-05T15:20:35.931Z,37.39
2022-08-05T15:22:08.934Z,38.74
2022-08-05T15:23:40.892Z,35.32
2022-08-05T15:25:14.318Z,38.03
2022-08-05T15:26:46.582Z,38.04
2022-08-05T15:28:22.237Z,37.46
2022-08-05T15:29:59.805Z,38.23
2022-08-05T15:31:34.899Z,35.90
2022-08-05T15:33:07.075Z,37.22
2022-08-05T15:34:39.482Z,36.31
2022-08-05T15:36:17.617Z,37.61
2022-08-05T15:38:34.854Z,37.82
2022-08-05T15:40:58.277Z,37.20
2022-08-05T15:41:55.666Z,36.89
2022-08-05T15:43:30.570Z,36.54
2022-08-05T15:45:18.972Z,38.29
2022-08-05T15:47:11.805Z,37.47
2022-08-05T15:48:53.113Z,37.84
2022-08-05T15:50:33.036Z,38.19
2022-08-05T15:52:16.519Z,38.71
2022-08-05T15:53:52.013Z,38.75
2022-08-05T15:55:24.469Z,37.54
2022-08-05T15:56:57.123Z,37.93
2022-08-05T15:58:29.417Z,37.56
2022-08-05T16:00:08.896Z,36.06
2022-08-05T16:01:52.551Z,39.07
2022-08-05T16:03:27.345Z,38.44
2022-08-05T16:05:00.530Z,38.45
2022-08-05T16:06:32.404Z,37.96
2022-08-05T16:08:04.504Z,38.26
2022-08-05T16:09:36.699Z,38.39
2022-08-05T16:11:13.501Z,38.67
2022-08-05T16:12:46.387Z,38.37
2022-08-05T16:14:18.661Z,38.21
2022-08-05T16:15:52.003Z,37.90
2022-08-05T16:17:24.508Z,38.23
2022-08-05T16:18:57.471Z,38.13
2022-08-05T16:20:32.440Z,39.25
2022-08-05T16:22:05.657Z,37.75
2022-08-05T16:23:53.595Z,39.27
2022-08-05T16:25:32.229Z,38.82
2022-08-05T16:27:07.282Z,39.74
2022-08-05T16:28:41.407Z,38.14
2022-08-05T16:30:23.253Z,40.17
2022-08-05T16:31:58.033Z,38.03
2022-08-05T16:33:41.641Z,38.21
2022-08-05T16:35:13.838Z,38.07
2022-08-05T16:36:48.542Z,38.81
2022-08-05T16:38:25.229Z,38.38
2022-08-05T16:40:04.606Z,39.86
2022-08-05T16:42:13.615Z,38.12
2022-08-05T16:43:35.125Z,39.70
2022-08-05T16:46:04.677Z,39.70
2022-08-05T16:46:59.742Z,39.24
2022-08-05T16:48:34.065Z,40.36
2022-08-05T16:50:10.177Z,40.51
2022-08-05T16:51:51.084Z,40.92
2022-08-05T16:53:32.117Z,40.75
2022-08-05T16:55:05.088Z,40.85
2022-08-05T16:56:37.115Z,40.74
2022-08-05T16:58:19.663Z,41.37
2022-08-05T17:00:00.318Z,40.98
2022-08-05T17:01:54.541Z,40.18
2022-08-05T17:03:27.940Z,41.88
2022-08-05T17:04:59.864Z,42.07
2022-08-05T17:06:32.065Z,41.48
2022-08-05T17:08:04.149Z,41.30
2022-08-05T17:09:57.612Z,41.07
2022-08-05T17:11:31.315Z,41.17
2022-08-05T17:13:21.340Z,40.31
2022-08-05T17:15:10.043Z,41.40
2022-08-05T17:16:47.600Z,40.73
2022-08-05T17:18:27.744Z,40.62
2022-08-05T17:20:00.725Z,40.40
2022-08-05T17:21:35.713Z,42.27
2022-08-05T17:23:08.697Z,40.46
2022-08-05T17:25:00.812Z,42.01
2022-08-05T17:26:32.881Z,41.30
2022-08-05T17:28:09.807Z,41.27
2022-08-05T17:29:41.908Z,40.66
2022-08-05T17:31:57.033Z,39.87
2022-08-05T17:33:21.120Z,41.31
2022-08-05T17:34:54.203Z,40.96
2022-08-05T17:36:33.938Z,41.13
2022-08-05T17:38:08.296Z,41.10
2022-08-05T17:39:40.343Z,41.10
2022-08-05T17:42:16.770Z,42.61
2022-08-05T17:43:10.084Z,41.94
2022-08-05T17:44:42.205Z,41.68
2022-08-05T17:46:23.792Z,42.65
2022-08-05T17:47:56.336Z,41.99
2022-08-05T17:49:28.294Z,41.94
2022-08-05T17:51:21.815Z,42.26
2022-08-05T17:52:54.988Z,41.99
2022-08-05T17:54:26.973Z,43.00
2022-08-05T17:55:59.909Z,43.27
2022-08-05T17:57:34.738Z,41.68
2022-08-05T17:59:09.674Z,42.64
2022-08-05T18:00:47.161Z,42.36
2022-08-05T18:02:20.186Z,44.31
2022-08-05T18:04:03.531Z,43.35
2022-08-05T18:05:39.203Z,43.12
2022-08-05T18:07:12.588Z,44.53
2022-08-05T18:08:52.612Z,43.45
2022-08-05T18:10:27.299Z,43.85
2022-08-05T18:12:07.234Z,44.10
2022-08-05T18:13:44.356Z,45.21
2022-08-05T18:15:18.397Z,44.37
2022-08-05T18:16:51.868Z,44.31
2022-08-05T18:18:26.928Z,44.55
2022-08-05T18:19:59.216Z,45.20
2022-08-05T18:22:07.213Z,45.41
2022-08-05T18:23:25.077Z,45.08
2022-08-05T18:25:02.206Z,45.44
2022-08-05T18:26:34.099Z,46.40
2022-08-05T18:28:07.521Z,46.26
2022-08-05T18:29:41.567Z,46.29
2022-08-05T18:31:13.518Z,46.33
2022-08-05T18:32:53.437Z,47.39
2022-08-05T18:34:41.327Z,46.18
2022-08-05T18:36:15.442Z,48.18
2022-08-05T18:37:47.680Z,47.00
2022-08-05T18:40:29.859Z,46.75
2022-08-05T18:41:56.161Z,47.47
2022-08-05T18:43:09.076Z,48.17
2022-08-05T18:44:51.433Z,47.88
2022-08-05T18:46:29.260Z,48.12
2022-08-05T18:48:01.225Z,47.95
2022-08-05T18:49:58.286Z,47.83
2022-08-05T18:52:06.651Z,48.05
2022-08-05T18:53:42.999Z,48.76
2022-08-05T18:55:22.228Z,48.98
2022-08-05T18:56:57.378Z,49.43
2022-08-05T18:58:29.280Z,48.53
2022-08-05T19:00:04.253Z,49.08
2022-08-05T19:01:48.101Z,48.95
2022-08-05T19:03:52.782Z,50.21
2022-08-05T19:06:13.416Z,49.81
2022-08-05T19:07:15.819Z,50.02
2022-08-05T19:08:47.832Z,50.39
2022-08-05T19:10:28.047Z,50.83
2022-08-05T19:12:03.764Z,50.55
2022-08-05T19:13:38.648Z,50.55
2022-08-05T19:15:57.819Z,49.98
2022-08-05T19:17:03.357Z,49.98
2022-08-05T19:18:38.384Z,50.69
2022-08-05T19:20:14.886Z,48.43
2022-08-05T19:21:47.295Z,49.21
2022-08-05T19:24:07.299Z,49.97
2022-08-05T19:25:29.635Z,50.23
2022-08-05T19:27:03.997Z,50.12
2022-08-05T19:28:41.498Z,49.87
2022-08-05T19:30:14.400Z,50.74
2022-08-05T19:31:51.136Z,50.64
2022-08-05T19:33:34.076Z,49.34
2022-08-05T19:35:08.462Z,51.07
2022-08-05T19:36:40.333Z,50.67
2022-08-05T19:38:14.457Z,51.14
2022-08-05T19:39:50.997Z,51.50
2022-08-05T19:42:03.360Z,51.82
2022-08-05T19:44:04.918Z,51.66
2022-08-05T19:45:08.342Z,50.47
2022-08-05T19:46:46.533Z,51.88
2022-08-05T19:48:18.368Z,51.64
2022-08-05T19:49:51.767Z,51.20
2022-08-05T19:52:06.037Z,51.77
2022-08-05T19:54:03.678Z,51.75
2022-08-05T19:56:14.416Z,51.09
2022-08-05T19:57:11.054Z,51.95
2022-08-05T19:58:54.076Z,51.40
2022-08-05T20:00:26.185Z,51.22
2022-08-05T20:01:58.026Z,52.04
2022-08-05T20:03:40.662Z,52.09
2022-08-05T20:05:16.280Z,52.39
2022-08-05T20:06:56.204Z,52.02
2022-08-05T20:08:28.172Z,51.50
2022-08-05T20:10:00.087Z,52.28
2022-08-05T20:11:32.037Z,52.28
2022-08-05T20:13:09.773Z,53.11
2022-08-05T20:14:41.995Z,51.83
2022-08-05T20:16:13.875Z,52.32
2022-08-05T20:17:51.654Z,52.16
2022-08-05T20:19:23.753Z,52.28
2022-08-05T20:21:08.467Z,51.81
2022-08-05T20:22:41.467Z,52.27
2022-08-05T20:24:16.167Z,53.18
2022-08-05T20:25:48.137Z,52.79
2022-08-05T20:27:27.380Z,53.45
2022-08-05T20:29:26.819Z,52.21
2022-08-05T20:30:59.686Z,53.28
2022-08-05T20:32:31.634Z,52.80
2022-08-05T20:34:05.080Z,52.44
2022-08-05T20:35:40.589Z,52.82
2022-08-05T20:37:24.208Z,52.78
2022-08-05T20:39:13.030Z,53.41
2022-08-05T20:40:45.811Z,52.75
2022-08-05T20:42:22.449Z,53.08
2022-08-05T20:43:59.527Z,53.60
2022-08-05T20:45:56.286Z,53.20
2022-08-05T20:47:31.946Z,54.40
2022-08-05T20:49:06.274Z,54.06
2022-08-05T20:50:42.602Z,53.92
2022-08-05T20:52:17.560Z,54.34
2022-08-05T20:53:56.532Z,54.52
2022-08-05T20:55:56.757Z,54.90
2022-08-05T20:57:24.837Z,54.76
2022-08-05T20:59:18.893Z,54.85
2022-08-05T21:00:52.349Z,55.10
2022-08-05T21:02:28.837Z,54.21
2022-08-05T21:04:00.700Z,54.89
2022-08-05T21:05:38.336Z,55.32
2022-08-05T21:07:26.024Z,54.56
2022-08-05T21:09:17.894Z,55.04
2022-08-05T21:10:50.758Z,55.80
2022-08-05T21:12:22.659Z,54.76
2022-08-05T21:13:58.639Z,55.31
2022-08-05T21:15:33.733Z,56.21
2022-08-05T21:17:06.382Z,56.03
2022-08-05T21:18:38.589Z,56.26
2022-08-05T21:20:33.356Z,55.87
2022-08-05T21:22:06.112Z,56.21
2022-08-05T21:23:41.442Z,56.23
2022-08-05T21:25:13.370Z,56.11
2022-08-05T21:26:58.473Z,56.51
2022-08-05T21:28:30.985Z,55.15
2022-08-05T21:30:03.977Z,57.03
2022-08-05T21:31:41.241Z,56.82